Time;durP1;ratioP1;P1;durP2;ratioP2;P2;SDS_P1;SDS_P2;PMS_P1;PMS_P2;Temp;Humidity;BMP_temperature;BMP_pressure;BME280_temperature;BME280_humidity;BME280_pressure;Samples;Min_cycle;Max_cycle;Signal;HPM_P1;HPM_P2
2023/05/24 00:02:12;;;;;;;12.27;6.97;;;;;;;;;;5044988;28;20433;-70
2023/05/24 00:04:39;;;;;;;10.93;6.88;;;;;;;;;;5034239;28;20117;-70
2023/05/24 00:07:05;;;;;;;12.50;7.40;;;;;;;;;;5038657;28;20049;-69
2023/05/24 00:09:31;;;;;;;15.02;7.45;;;;;;;;;;5046339;28;20013;-69
2023/05/24 00:11:57;;;;;;;12.65;7.88;;;;;;;;;;5054956;28;20041;-70
2023/05/24 00:14:23;;;;;;;10.70;6.88;;;;;;;;;;5054003;28;20031;-70
2023/05/24 00:16:50;;;;;;;13.32;7.53;;;;;;;;;;5047560;28;20033;-70
2023/05/24 00:19:17;;;;;;;7.93;6.00;;;;;;;;;;5042558;28;20029;-70
2023/05/24 00:21:46;;;;;;;9.77;6.38;;;;;;;;;;5034227;28;20049;-70
2023/05/24 00:24:12;;;;;;;10.57;7.15;;;;;;;;;;5033840;28;20056;-70
2023/05/24 00:26:38;;;;;;;9.63;7.10;;;;;;;;;;5033249;28;20037;-69
2023/05/24 00:29:04;;;;;;;9.00;6.95;;;;;;;;;;5034363;28;20022;-69
2023/05/24 00:31:30;;;;;;;10.98;6.47;;;;;;;;;;5032891;28;20068;-69
2023/05/24 00:33:56;;;;;;;10.13;6.38;;;;;;;;;;5033945;28;20064;-69
2023/05/24 00:36:22;;;;;;;11.82;6.22;;;;;;;;;;5032014;28;20061;-69
2023/05/24 00:38:47;;;;;;;11.80;6.55;;;;;;;;;;5016417;28;20116;-69
2023/05/24 00:41:15;;;;;;;9.88;6.30;;;;;;;;;;5032757;28;20044;-70
2023/05/24 00:43:44;;;;;;;10.10;6.32;;;;;;;;;;5032641;28;20061;-70
2023/05/24 00:46:13;;;;;;;10.43;6.45;;;;;;;;;;5032300;28;20033;-70
2023/05/24 00:48:39;;;;;;;10.48;6.07;;;;;;;;;;5033882;28;20497;-70
2023/05/24 00:51:05;;;;;;;9.50;6.20;;;;;;;;;;5033736;28;20030;-69
2023/05/24 00:53:32;;;;;;;9.40;6.30;;;;;;;;;;5032539;28;20032;-70
2023/05/24 00:55:58;;;;;;;9.77;5.63;;;;;;;;;;5032050;28;20503;-70
2023/05/24 00:58:29;;;;;;;8.80;5.75;;;;;;;;;;5032346;28;20502;-70
2023/05/24 01:00:59;;;;;;;9.80;5.50;;;;;;;;;;5032354;28;20040;-70
2023/05/24 01:03:28;;;;;;;12.90;5.10;;;;;;;;;;5033443;28;20029;-70
2023/05/24 01:05:57;;;;;;;7.05;5.22;;;;;;;;;;5033124;28;20025;-69
2023/05/24 01:08:38;;;;;;;8.27;5.03;;;;;;;;;;5032167;28;20510;-70
2023/05/24 01:11:21;;;;;;;9.23;5.25;;;;;;;;;;5040424;28;20049;-70
2023/05/24 01:14:25;;;;;;;8.43;5.53;;;;;;;;;;5045110;28;20036;-70
2023/05/24 01:17:14;;;;;;;13.45;6.30;;;;;;;;;;5052106;28;20293;-69
2023/05/24 01:19:58;;;;;;;6.68;5.18;;;;;;;;;;5053356;28;20032;-69
2023/05/24 01:23:05;;;;;;;7.55;5.15;;;;;;;;;;5051554;28;20037;-69
2023/05/24 01:26:04;;;;;;;12.13;5.50;;;;;;;;;;5051412;28;20033;-69
2023/05/24 01:28:32;;;;;;;7.93;4.80;;;;;;;;;;5068298;28;20053;-69
2023/05/24 01:30:58;;;;;;;6.75;4.82;;;;;;;;;;5035692;28;20021;-70
2023/05/24 01:33:25;;;;;;;7.25;5.50;;;;;;;;;;5035170;28;20029;-70
2023/05/24 01:35:50;;;;;;;11.05;5.18;;;;;;;;;;5052234;28;20021;-70
2023/05/24 01:38:16;;;;;;;10.13;5.47;;;;;;;;;;5050491;28;20127;-69
2023/05/24 01:40:43;;;;;;;8.80;5.00;;;;;;;;;;5046777;28;20491;-69
2023/05/24 01:43:36;;;;;;;8.00;5.38;;;;;;;;;;5032910;28;20380;-69
2023/05/24 01:46:24;;;;;;;10.30;5.00;;;;;;;;;;5050980;28;20111;-69
2023/05/24 01:49:08;;;;;;;7.47;5.05;;;;;;;;;;5051129;28;20567;-69
2023/05/24 01:51:40;;;;;;;8.98;5.35;;;;;;;;;;5050741;28;20107;-69
2023/05/24 01:54:06;;;;;;;8.43;5.72;;;;;;;;;;5043925;28;20034;-70
2023/05/24 01:56:33;;;;;;;10.43;5.13;;;;;;;;;;5030576;28;20025;-70
2023/05/24 01:59:01;;;;;;;10.35;5.68;;;;;;;;;;5047676;28;20044;-70
2023/05/24 02:01:29;;;;;;;9.63;5.35;;;;;;;;;;5030766;28;20499;-70
2023/05/24 02:03:55;;;;;;;8.00;5.00;;;;;;;;;;5046698;28;20036;-70
2023/05/24 02:06:21;;;;;;;8.32;4.63;;;;;;;;;;5045499;28;20475;-69
2023/05/24 02:08:47;;;;;;;9.55;5.18;;;;;;;;;;5030744;28;20041;-69
2023/05/24 02:11:12;;;;;;;9.70;4.70;;;;;;;;;;5039113;28;20021;-70
2023/05/24 02:13:38;;;;;;;9.73;4.57;;;;;;;;;;5030637;28;20039;-70
2023/05/24 02:16:04;;;;;;;9.32;4.82;;;;;;;;;;5041945;28;20025;-69
2023/05/24 02:18:33;;;;;;;11.65;5.10;;;;;;;;;;5032645;28;20478;-69
2023/05/24 02:21:01;;;;;;;12.40;5.50;;;;;;;;;;5052382;28;20032;-70
2023/05/24 02:23:27;;;;;;;12.05;5.15;;;;;;;;;;5052367;28;20055;-71
2023/05/24 02:25:54;;;;;;;9.52;4.70;;;;;;;;;;5051793;28;20454;-70
2023/05/24 02:28:20;;;;;;;11.15;5.43;;;;;;;;;;5051927;28;20040;-70
2023/05/24 02:30:46;;;;;;;12.85;5.30;;;;;;;;;;5050614;28;20033;-70
2023/05/24 02:33:12;;;;;;;8.65;4.75;;;;;;;;;;5050351;28;20033;-70
2023/05/24 02:35:40;;;;;;;12.07;4.85;;;;;;;;;;5051163;28;20068;-70
2023/05/24 02:38:06;;;;;;;13.02;4.97;;;;;;;;;;5050345;28;20123;-70
2023/05/24 02:40:31;;;;;;;8.32;4.63;;;;;;;;;;5046891;28;20013;-70
2023/05/24 02:42:57;;;;;;;13.05;4.97;;;;;;;;;;5038619;28;20376;-71
2023/05/24 02:45:23;;;;;;;13.75;4.93;;;;;;;;;;5046583;28;20031;-70
2023/05/24 02:47:49;;;;;;;11.95;4.72;;;;;;;;;;5050056;28;20044;-69
2023/05/24 02:50:15;;;;;;;16.23;5.55;;;;;;;;;;5049932;28;20031;-70
2023/05/24 02:52:40;;;;;;;13.80;5.07;;;;;;;;;;5050256;28;20060;-70
2023/05/24 02:55:07;;;;;;;11.82;5.15;;;;;;;;;;5051218;28;20025;-70
2023/05/24 02:57:33;;;;;;;10.60;5.05;;;;;;;;;;5050031;28;20437;-70
2023/05/24 02:59:59;;;;;;;17.40;5.75;;;;;;;;;;5049919;28;20083;-70
2023/05/24 03:02:28;;;;;;;19.73;5.38;;;;;;;;;;5051138;28;20065;-73
2023/05/24 03:04:53;;;;;;;13.45;6.28;;;;;;;;;;5044211;28;20491;-69
2023/05/24 03:07:19;;;;;;;15.77;6.85;;;;;;;;;;5040311;28;20099;-70
2023/05/24 03:09:45;;;;;;;24.88;8.55;;;;;;;;;;5046999;28;20367;-69
2023/05/24 03:12:11;;;;;;;10.98;7.38;;;;;;;;;;5043913;28;20032;-69
2023/05/24 03:14:37;;;;;;;22.13;7.55;;;;;;;;;;5044685;28;20068;-70
2023/05/24 03:17:03;;;;;;;24.88;7.28;;;;;;;;;;5037528;28;20507;-70
2023/05/24 03:19:29;;;;;;;16.98;6.68;;;;;;;;;;5041722;28;20029;-69
2023/05/24 03:21:56;;;;;;;14.15;7.30;;;;;;;;;;5034368;28;20549;-69
2023/05/24 03:24:22;;;;;;;19.17;7.00;;;;;;;;;;5042406;28;20167;-71
2023/05/24 03:26:48;;;;;;;18.08;7.38;;;;;;;;;;5035275;28;20108;-70
2023/05/24 03:29:15;;;;;;;10.55;7.55;;;;;;;;;;5039319;28;20338;-70
2023/05/24 03:31:42;;;;;;;14.25;7.80;;;;;;;;;;5050238;28;20041;-70
2023/05/24 03:34:07;;;;;;;13.70;7.13;;;;;;;;;;5052042;28;20020;-70
2023/05/24 03:36:35;;;;;;;26.45;9.82;;;;;;;;;;5036690;28;20033;-70
2023/05/24 03:39:03;;;;;;;23.17;8.15;;;;;;;;;;5029622;28;20414;-70
2023/05/24 03:41:34;;;;;;;18.95;7.82;;;;;;;;;;5054475;28;20123;-70
2023/05/24 03:44:00;;;;;;;25.77;9.13;;;;;;;;;;5055476;28;20033;-70
2023/05/24 03:46:28;;;;;;;14.05;7.20;;;;;;;;;;5037803;28;20071;-70
2023/05/24 03:48:54;;;;;;;23.23;8.75;;;;;;;;;;5038811;28;20112;-71
2023/05/24 03:51:22;;;;;;;23.58;7.22;;;;;;;;;;5047203;28;20020;-71
2023/05/24 03:53:48;;;;;;;22.55;7.85;;;;;;;;;;5037474;28;20033;-70
2023/05/24 03:56:14;;;;;;;18.35;7.03;;;;;;;;;;5038811;28;20039;-70
2023/05/24 03:58:40;;;;;;;19.27;6.93;;;;;;;;;;5038601;28;20388;-70
2023/05/24 04:01:06;;;;;;;11.45;5.13;;;;;;;;;;5041541;28;20021;-70
2023/05/24 04:03:33;;;;;;;13.07;5.10;;;;;;;;;;5045249;28;20535;-70
2023/05/24 04:05:58;;;;;;;20.30;6.40;;;;;;;;;;5043854;28;20064;-71
2023/05/24 04:08:24;;;;;;;19.15;5.68;;;;;;;;;;5042884;28;20045;-70
2023/05/24 04:10:50;;;;;;;20.05;5.93;;;;;;;;;;5043892;28;20040;-70
2023/05/24 04:13:15;;;;;;;14.38;5.80;;;;;;;;;;5024019;28;20084;-68
2023/05/24 04:15:42;;;;;;;12.07;4.75;;;;;;;;;;5027123;28;20094;-70
2023/05/24 04:18:10;;;;;;;12.30;4.70;;;;;;;;;;5050517;28;20028;-69
2023/05/24 04:20:37;;;;;;;14.77;4.63;;;;;;;;;;5050491;28;20490;-70
2023/05/24 04:23:03;;;;;;;9.02;4.90;;;;;;;;;;5046825;28;20273;-70
2023/05/24 04:25:29;;;;;;;11.45;4.90;;;;;;;;;;5049351;28;20024;-71
2023/05/24 04:27:56;;;;;;;12.32;4.93;;;;;;;;;;5052635;28;20037;-70
2023/05/24 04:30:23;;;;;;;18.27;5.22;;;;;;;;;;5048975;28;20413;-70
2023/05/24 04:32:50;;;;;;;24.95;5.88;;;;;;;;;;5045349;28;20037;-70
2023/05/24 04:35:16;;;;;;;12.30;4.85;;;;;;;;;;5057803;28;20513;-70
2023/05/24 04:37:43;;;;;;;13.80;5.30;;;;;;;;;;5043307;28;20051;-70
2023/05/24 04:40:10;;;;;;;17.17;6.15;;;;;;;;;;5044284;28;20022;-70
2023/05/24 04:42:35;;;;;;;14.88;4.78;;;;;;;;;;5046094;28;20045;-71
2023/05/24 04:45:01;;;;;;;11.93;5.05;;;;;;;;;;5033616;28;20542;-70
2023/05/24 04:47:27;;;;;;;21.50;5.38;;;;;;;;;;5059183;28;20510;-71
2023/05/24 04:49:53;;;;;;;18.02;5.32;;;;;;;;;;5058748;28;20053;-71
2023/05/24 04:52:18;;;;;;;14.95;5.72;;;;;;;;;;5038170;28;20045;-71
2023/05/24 04:54:44;;;;;;;16.70;5.07;;;;;;;;;;5043835;28;20033;-70
2023/05/24 04:57:10;;;;;;;16.13;4.95;;;;;;;;;;5048895;28;20040;-70
2023/05/24 04:59:36;;;;;;;13.90;5.10;;;;;;;;;;5049774;28;20378;-70
2023/05/24 05:02:02;;;;;;;11.85;4.93;;;;;;;;;;5040631;28;20041;-70
2023/05/24 05:04:27;;;;;;;11.65;5.28;;;;;;;;;;5042550;28;20021;-71
2023/05/24 05:06:54;;;;;;;11.07;4.72;;;;;;;;;;5045166;28;20041;-69
2023/05/24 05:09:20;;;;;;;11.65;5.55;;;;;;;;;;5056634;28;20025;-70
2023/05/24 05:11:46;;;;;;;13.98;4.85;;;;;;;;;;5041967;28;20048;-70
2023/05/24 05:14:11;;;;;;;9.98;4.50;;;;;;;;;;5043717;28;20108;-70
2023/05/24 05:16:38;;;;;;;13.40;4.55;;;;;;;;;;5043100;28;20395;-73
2023/05/24 05:19:04;;;;;;;14.40;5.07;;;;;;;;;;5048862;28;20024;-72
2023/05/24 05:21:31;;;;;;;15.90;5.55;;;;;;;;;;5046490;28;20037;-72
2023/05/24 05:23:58;;;;;;;7.97;5.43;;;;;;;;;;5038126;28;20118;-72
2023/05/24 05:26:26;;;;;;;11.52;4.82;;;;;;;;;;5040290;28;20471;-71
2023/05/24 05:28:53;;;;;;;16.08;5.15;;;;;;;;;;5058214;28;20124;-71
2023/05/24 05:31:19;;;;;;;10.88;5.45;;;;;;;;;;5031033;28;20097;-71
2023/05/24 05:33:45;;;;;;;10.70;5.50;;;;;;;;;;5039221;28;20030;-71
2023/05/24 05:36:11;;;;;;;21.02;6.53;;;;;;;;;;5039215;28;20033;-71
2023/05/24 05:38:37;;;;;;;14.38;5.95;;;;;;;;;;5043298;28;20423;-72
2023/05/24 05:41:03;;;;;;;13.15;5.53;;;;;;;;;;5038897;28;20132;-72
2023/05/24 05:43:29;;;;;;;17.40;6.15;;;;;;;;;;5042471;28;20017;-72
2023/05/24 05:45:55;;;;;;;12.18;5.60;;;;;;;;;;5039014;28;20132;-71
2023/05/24 05:48:21;;;;;;;16.90;5.93;;;;;;;;;;5050278;28;20104;-72
2023/05/24 05:50:46;;;;;;;19.35;6.35;;;;;;;;;;5049725;28;20041;-72
2023/05/24 05:53:12;;;;;;;13.73;6.05;;;;;;;;;;5042496;28;20075;-70
2023/05/24 05:55:38;;;;;;;19.38;5.97;;;;;;;;;;5042063;28;20554;-71
2023/05/24 05:58:03;;;;;;;12.95;6.13;;;;;;;;;;5050646;28;20052;-71
2023/05/24 06:00:29;;;;;;;14.38;5.85;;;;;;;;;;5044262;28;20025;-73
2023/05/24 06:02:55;;;;;;;16.23;6.45;;;;;;;;;;5042720;28;20544;-71
2023/05/24 06:05:20;;;;;;;15.38;6.00;;;;;;;;;;5042041;28;20029;-71
2023/05/24 06:07:46;;;;;;;10.05;5.22;;;;;;;;;;5065840;28;20461;-72
2023/05/24 06:10:13;;;;;;;11.27;5.63;;;;;;;;;;5048875;28;20174;-71
2023/05/24 06:12:39;;;;;;;16.20;5.50;;;;;;;;;;5041041;28;20538;-70
2023/05/24 06:15:06;;;;;;;16.65;5.72;;;;;;;;;;5036453;28;20037;-70
2023/05/24 06:17:33;;;;;;;13.20;5.85;;;;;;;;;;5034310;28;20123;-71
2023/05/24 06:19:59;;;;;;;17.83;6.75;;;;;;;;;;5041705;28;20446;-70
2023/05/24 06:22:26;;;;;;;13.50;5.47;;;;;;;;;;5041043;28;20486;-70
2023/05/24 06:24:52;;;;;;;12.30;5.72;;;;;;;;;;5039491;28;20047;-71
2023/05/24 06:27:18;;;;;;;13.32;5.47;;;;;;;;;;5033275;28;20029;-72
2023/05/24 06:29:44;;;;;;;11.23;5.03;;;;;;;;;;5043931;28;20041;-70
2023/05/24 06:32:10;;;;;;;9.93;5.03;;;;;;;;;;5039059;28;20017;-72
2023/05/24 06:34:36;;;;;;;15.40;6.20;;;;;;;;;;5045522;28;20030;-71
2023/05/24 06:37:02;;;;;;;14.32;5.65;;;;;;;;;;5042869;28;20039;-70
2023/05/24 06:39:28;;;;;;;11.68;5.10;;;;;;;;;;5042509;28;20035;-71
2023/05/24 06:41:55;;;;;;;15.35;5.82;;;;;;;;;;5041987;28;20085;-72
2023/05/24 06:44:29;;;;;;;14.82;5.30;;;;;;;;;;5033500;28;20120;-71
2023/05/24 06:46:55;;;;;;;15.27;5.53;;;;;;;;;;5040876;28;20036;-72
2023/05/24 06:49:21;;;;;;;13.70;5.15;;;;;;;;;;5057003;28;20390;-73
2023/05/24 06:51:47;;;;;;;12.68;5.65;;;;;;;;;;5044884;28;20025;-71
2023/05/24 06:54:12;;;;;;;11.80;5.30;;;;;;;;;;5038155;28;20387;-73
2023/05/24 06:56:38;;;;;;;8.57;4.72;;;;;;;;;;5042839;28;20075;-72
2023/05/24 06:59:04;;;;;;;7.20;4.65;;;;;;;;;;5041829;28;20071;-71
2023/05/24 07:01:29;;;;;;;10.93;4.85;;;;;;;;;;5049482;28;20056;-72
2023/05/24 07:03:55;;;;;;;10.30;4.50;;;;;;;;;;5041834;28;20483;-73
2023/05/24 07:06:21;;;;;;;10.50;4.85;;;;;;;;;;5041950;28;20040;-73
2023/05/24 07:08:48;;;;;;;10.48;4.35;;;;;;;;;;5049044;28;20486;-72
2023/05/24 07:11:14;;;;;;;12.65;4.40;;;;;;;;;;5031842;28;20030;-72
2023/05/24 07:13:40;;;;;;;6.82;4.22;;;;;;;;;;5041506;28;20121;-73
2023/05/24 07:16:06;;;;;;;12.25;4.20;;;;;;;;;;5040976;28;20191;-73
2023/05/24 07:18:31;;;;;;;7.65;4.60;;;;;;;;;;5033008;28;20036;-73
2023/05/24 07:20:57;;;;;;;8.82;4.50;;;;;;;;;;5032877;28;20187;-73
2023/05/24 07:23:23;;;;;;;4.40;3.58;;;;;;;;;;5040439;28;20030;-74
2023/05/24 07:25:48;;;;;;;14.05;3.90;;;;;;;;;;5040859;28;20029;-72
2023/05/24 07:28:16;;;;;;;9.32;4.10;;;;;;;;;;5048144;28;20474;-72
2023/05/24 07:30:43;;;;;;;7.03;3.25;;;;;;;;;;5043218;28;20056;-73
2023/05/24 07:33:09;;;;;;;6.40;3.70;;;;;;;;;;5040540;28;20023;-75
2023/05/24 07:35:35;;;;;;;9.40;3.72;;;;;;;;;;5042753;28;20033;-74
2023/05/24 07:38:01;;;;;;;15.23;3.88;;;;;;;;;;5054246;28;20082;-73
2023/05/24 07:40:27;;;;;;;7.53;3.78;;;;;;;;;;5050110;28;20033;-72
2023/05/24 07:42:52;;;;;;;8.60;3.92;;;;;;;;;;5047906;28;20040;-72
2023/05/24 07:45:18;;;;;;;9.77;4.38;;;;;;;;;;5043542;28;20076;-72
2023/05/24 07:47:44;;;;;;;8.32;3.80;;;;;;;;;;5041863;28;20029;-71
2023/05/24 07:50:10;;;;;;;9.27;3.60;;;;;;;;;;5042034;28;20266;-72
2023/05/24 07:52:37;;;;;;;8.35;3.80;;;;;;;;;;5053057;28;20163;-72
2023/05/24 07:55:04;;;;;;;10.20;4.50;;;;;;;;;;5053275;28;20051;-73
2023/05/24 07:57:30;;;;;;;9.10;3.47;;;;;;;;;;5053380;28;20104;-72
2023/05/24 07:59:56;;;;;;;10.50;3.63;;;;;;;;;;5051720;28;20436;-74
2023/05/24 08:02:21;;;;;;;11.43;4.07;;;;;;;;;;5052985;28;20025;-74
2023/05/24 08:04:47;;;;;;;9.35;3.72;;;;;;;;;;5052555;28;20112;-72
2023/05/24 08:07:13;;;;;;;11.10;3.97;;;;;;;;;;5053244;28;20021;-72
2023/05/24 08:09:39;;;;;;;7.80;3.17;;;;;;;;;;5051041;28;20044;-73
2023/05/24 08:12:05;;;;;;;9.50;3.55;;;;;;;;;;5053277;28;20070;-73
2023/05/24 08:14:31;;;;;;;6.85;3.47;;;;;;;;;;5052252;28;20206;-73
2023/05/24 08:16:59;;;;;;;6.57;3.83;;;;;;;;;;5040307;28;20167;-73
2023/05/24 08:19:26;;;;;;;8.85;4.18;;;;;;;;;;5044758;28;20025;-73
2023/05/24 08:21:54;;;;;;;5.80;3.60;;;;;;;;;;5053335;28;20026;-72
2023/05/24 08:24:20;;;;;;;8.60;3.50;;;;;;;;;;5041600;28;20029;-73
2023/05/24 08:26:45;;;;;;;5.60;3.55;;;;;;;;;;5045231;28;20501;-74
2023/05/24 08:29:11;;;;;;;5.85;3.50;;;;;;;;;;5040078;28;20522;-73
2023/05/24 08:31:37;;;;;;;9.38;3.53;;;;;;;;;;5032479;28;20433;-72
2023/05/24 08:34:03;;;;;;;9.27;3.90;;;;;;;;;;5032996;28;20399;-73
2023/05/24 08:36:29;;;;;;;9.82;4.13;;;;;;;;;;5032926;28;20090;-73
2023/05/24 08:38:55;;;;;;;5.28;3.33;;;;;;;;;;5048193;28;20033;-73
2023/05/24 08:41:21;;;;;;;9.93;3.15;;;;;;;;;;5032816;28;20415;-73
2023/05/24 08:43:47;;;;;;;5.97;3.70;;;;;;;;;;5032476;28;20427;-73
2023/05/24 08:46:16;;;;;;;5.68;3.17;;;;;;;;;;5031497;28;20083;-72
2023/05/24 08:48:47;;;;;;;6.72;3.30;;;;;;;;;;5033530;28;20041;-72
2023/05/24 08:51:17;;;;;;;5.70;3.33;;;;;;;;;;5034156;28;20037;-74
2023/05/24 08:53:47;;;;;;;8.48;3.20;;;;;;;;;;5032579;28;20132;-74
2023/05/24 08:56:17;;;;;;;6.03;2.85;;;;;;;;;;5031974;28;20086;-74
2023/05/24 08:58:44;;;;;;;6.18;2.97;;;;;;;;;;5032245;28;20045;-74
2023/05/24 09:01:15;;;;;;;4.28;3.15;;;;;;;;;;5032576;28;20029;-73
2023/05/24 09:03:43;;;;;;;6.15;3.05;;;;;;;;;;5032532;28;20080;-74
2023/05/24 09:06:11;;;;;;;5.18;3.00;;;;;;;;;;5032035;28;20363;-72
2023/05/24 09:08:37;;;;;;;5.65;3.40;;;;;;;;;;5031959;28;20049;-72
2023/05/24 09:11:06;;;;;;;6.07;3.50;;;;;;;;;;5049837;28;20029;-71
2023/05/24 09:13:33;;;;;;;6.97;3.20;;;;;;;;;;5052919;28;20040;-73
2023/05/24 09:16:00;;;;;;;4.85;2.60;;;;;;;;;;5052293;28;20036;-73
2023/05/24 09:18:26;;;;;;;5.63;2.83;;;;;;;;;;5050911;28;20033;-73
2023/05/24 09:20:51;;;;;;;7.90;3.35;;;;;;;;;;5049756;28;20165;-73
2023/05/24 09:23:17;;;;;;;7.15;2.95;;;;;;;;;;5050819;28;20060;-73
2023/05/24 09:25:45;;;;;;;5.57;2.95;;;;;;;;;;5050594;28;20550;-73
2023/05/24 09:28:16;;;;;;;6.90;2.53;;;;;;;;;;5051767;28;20033;-74
2023/05/24 09:30:58;;;;;;;3.97;2.33;;;;;;;;;;5051547;28;20522;-74
2023/05/24 09:33:31;;;;;;;5.07;2.72;;;;;;;;;;5067136;28;20033;-74
2023/05/24 09:36:05;;;;;;;5.50;2.63;;;;;;;;;;5049580;28;20068;-75
2023/05/24 09:38:31;;;;;;;5.07;2.50;;;;;;;;;;5051842;28;20486;-73
2023/05/24 09:41:07;;;;;;;7.10;3.00;;;;;;;;;;5051267;28;20129;-73
2023/05/24 09:43:45;;;;;;;3.90;2.70;;;;;;;;;;5054015;28;20036;-73
2023/05/24 09:46:15;;;;;;;4.38;2.60;;;;;;;;;;5050860;28;20561;-72
2023/05/24 09:49:05;;;;;;;5.88;2.92;;;;;;;;;;5052179;28;20027;-72
2023/05/24 09:51:33;;;;;;;5.57;2.92;;;;;;;;;;5051991;28;20036;-71
2023/05/24 09:54:02;;;;;;;4.32;2.75;;;;;;;;;;5055406;28;20029;-73
2023/05/24 09:56:29;;;;;;;3.67;2.70;;;;;;;;;;5033112;28;20041;-74
2023/05/24 09:58:55;;;;;;;5.55;3.00;;;;;;;;;;5031731;28;20105;-73
2023/05/24 10:01:24;;;;;;;4.38;2.78;;;;;;;;;;5031242;28;20477;-73
2023/05/24 10:03:57;;;;;;;4.63;2.78;;;;;;;;;;5037428;28;20126;-73
2023/05/24 10:06:24;;;;;;;7.72;2.95;;;;;;;;;;5042981;28;20490;-73
2023/05/24 10:08:51;;;;;;;7.97;2.53;;;;;;;;;;5043411;28;20074;-73
2023/05/24 10:11:17;;;;;;;3.97;3.00;;;;;;;;;;5040888;28;20379;-73
2023/05/24 10:13:43;;;;;;;4.20;2.60;;;;;;;;;;5040449;28;20036;-73
2023/05/24 10:16:09;;;;;;;4.00;2.40;;;;;;;;;;5039824;28;20036;-72
2023/05/24 10:18:35;;;;;;;4.18;2.75;;;;;;;;;;5038207;28;20036;-72
2023/05/24 10:21:03;;;;;;;8.25;3.63;;;;;;;;;;5044796;28;20426;-73
2023/05/24 10:23:30;;;;;;;6.78;3.00;;;;;;;;;;5049893;28;20028;-72
2023/05/24 10:26:06;;;;;;;4.78;2.80;;;;;;;;;;5050600;28;20399;-72
2023/05/24 10:28:53;;;;;;;6.60;2.50;;;;;;;;;;5050902;28;20207;-72
2023/05/24 10:31:26;;;;;;;5.32;3.20;;;;;;;;;;5046711;28;20044;-73
2023/05/24 10:33:52;;;;;;;3.50;2.72;;;;;;;;;;5029831;28;20475;-72
2023/05/24 10:36:20;;;;;;;5.10;2.65;;;;;;;;;;5030551;28;20108;-73
2023/05/24 10:38:48;;;;;;;5.65;2.58;;;;;;;;;;5031106;28;20041;-72
2023/05/24 10:41:14;;;;;;;5.50;3.53;;;;;;;;;;5032039;28;20029;-74
2023/05/24 10:43:45;;;;;;;6.75;3.00;;;;;;;;;;5047486;28;20037;-74
2023/05/24 10:46:15;;;;;;;3.30;2.30;;;;;;;;;;5030999;28;20025;-73
2023/05/24 10:48:41;;;;;;;4.07;2.53;;;;;;;;;;5030543;28;20033;-73
2023/05/24 10:51:31;;;;;;;6.15;2.72;;;;;;;;;;5030137;28;20430;-73
2023/05/24 10:53:57;;;;;;;5.22;2.83;;;;;;;;;;5031289;28;20053;-74
2023/05/24 10:56:26;;;;;;;4.68;2.40;;;;;;;;;;5044079;28;20087;-73
2023/05/24 10:58:58;;;;;;;4.28;2.65;;;;;;;;;;5029373;28;20132;-74
2023/05/24 11:01:26;;;;;;;4.43;2.33;;;;;;;;;;5031779;28;20220;-72
2023/05/24 11:03:52;;;;;;;4.43;2.45;;;;;;;;;;5046393;28;20037;-72
2023/05/24 11:06:18;;;;;;;4.78;2.75;;;;;;;;;;5045219;28;20059;-73
2023/05/24 11:08:45;;;;;;;5.40;2.90;;;;;;;;;;5051168;28;20032;-73
2023/05/24 11:11:13;;;;;;;6.22;2.90;;;;;;;;;;5056352;28;20044;-72
2023/05/24 11:13:39;;;;;;;4.40;2.58;;;;;;;;;;5055298;28;20029;-72
2023/05/24 11:16:06;;;;;;;6.55;3.45;;;;;;;;;;5046218;28;20452;-74
2023/05/24 11:18:37;;;;;;;7.32;2.90;;;;;;;;;;5052806;28;20052;-73
2023/05/24 11:21:05;;;;;;;5.93;2.65;;;;;;;;;;5052797;28;20024;-74
2023/05/24 11:23:32;;;;;;;4.97;2.90;;;;;;;;;;5049802;28;20029;-72
2023/05/24 11:25:58;;;;;;;6.70;3.00;;;;;;;;;;5056999;28;20033;-74
2023/05/24 11:28:24;;;;;;;4.65;2.85;;;;;;;;;;5051316;28;20460;-74
2023/05/24 11:30:50;;;;;;;6.10;4.15;;;;;;;;;;5036506;28;20041;-73
2023/05/24 11:33:21;;;;;;;10.23;3.08;;;;;;;;;;5037135;28;20494;-74
2023/05/24 11:35:53;;;;;;;5.47;3.05;;;;;;;;;;5036710;28;20036;-73
2023/05/24 11:38:20;;;;;;;6.50;2.97;;;;;;;;;;5036698;28;20033;-73
2023/05/24 11:40:47;;;;;;;4.30;2.58;;;;;;;;;;5036955;28;20029;-73
2023/05/24 11:43:18;;;;;;;6.10;2.95;;;;;;;;;;5052533;28;20087;-74
2023/05/24 11:45:52;;;;;;;4.88;3.08;;;;;;;;;;5054319;28;20547;-73
2023/05/24 11:48:19;;;;;;;5.05;2.90;;;;;;;;;;5052896;28;20064;-73
2023/05/24 11:50:47;;;;;;;6.72;3.20;;;;;;;;;;5047015;28;20075;-74
2023/05/24 11:53:15;;;;;;;3.75;2.88;;;;;;;;;;5054739;28;20037;-73
2023/05/24 11:55:41;;;;;;;6.38;2.70;;;;;;;;;;5038438;28;20022;-71
2023/05/24 11:58:24;;;;;;;4.35;2.80;;;;;;;;;;5050651;28;20029;-70
2023/05/24 12:00:51;;;;;;;7.85;3.60;;;;;;;;;;5043852;28;20041;-71
2023/05/24 12:03:17;;;;;;;5.63;3.22;;;;;;;;;;5045246;28;20504;-71
2023/05/24 12:05:43;;;;;;;5.28;2.80;;;;;;;;;;5047474;28;20040;-71
2023/05/24 12:08:11;;;;;;;5.43;3.25;;;;;;;;;;5055160;28;20107;-71
2023/05/24 12:10:38;;;;;;;6.82;3.15;;;;;;;;;;5049911;28;20026;-72
2023/05/24 12:13:07;;;;;;;5.20;3.00;;;;;;;;;;5043953;28;20024;-71
2023/05/24 12:15:33;;;;;;;3.83;2.88;;;;;;;;;;5052662;28;20509;-71
2023/05/24 12:17:58;;;;;;;7.22;2.83;;;;;;;;;;5051074;28;20124;-72
2023/05/24 12:20:27;;;;;;;8.43;3.50;;;;;;;;;;5054120;28;20032;-72
2023/05/24 12:22:54;;;;;;;7.63;3.40;;;;;;;;;;5050412;28;20035;-72
2023/05/24 12:25:21;;;;;;;5.90;3.08;;;;;;;;;;5050627;28;20028;-74
2023/05/24 12:27:55;;;;;;;6.03;3.00;;;;;;;;;;5049742;28;20422;-72
2023/05/24 12:30:25;;;;;;;8.45;3.17;;;;;;;;;;5043550;28;20033;-72
2023/05/24 12:32:55;;;;;;;4.90;3.08;;;;;;;;;;5041852;28;20028;-72
2023/05/24 12:35:21;;;;;;;6.97;2.40;;;;;;;;;;5052888;28;20041;-73
2023/05/24 12:37:47;;;;;;;4.88;3.08;;;;;;;;;;5045894;28;20426;-72
2023/05/24 12:40:20;;;;;;;3.78;2.67;;;;;;;;;;5042151;28;20064;-73
2023/05/24 12:42:52;;;;;;;4.57;2.70;;;;;;;;;;5047424;28;20055;-73
2023/05/24 12:45:21;;;;;;;4.18;2.72;;;;;;;;;;5048201;28;20063;-73
2023/05/24 12:47:51;;;;;;;5.82;2.90;;;;;;;;;;5049608;28;20025;-72
2023/05/24 12:50:22;;;;;;;3.88;2.50;;;;;;;;;;5048911;28;20072;-72
2023/05/24 12:52:51;;;;;;;10.07;2.60;;;;;;;;;;5043801;28;20039;-73
2023/05/24 12:55:26;;;;;;;5.43;3.60;;;;;;;;;;5048662;28;20027;-72
2023/05/24 12:57:56;;;;;;;6.20;2.72;;;;;;;;;;5049527;28;20094;-72
2023/05/24 13:00:26;;;;;;;4.68;2.40;;;;;;;;;;5047698;28;20100;-72
2023/05/24 13:02:54;;;;;;;5.45;2.85;;;;;;;;;;5047772;28;20391;-72
2023/05/24 13:05:21;;;;;;;4.15;2.33;;;;;;;;;;5048499;28;20429;-71
2023/05/24 13:07:48;;;;;;;6.10;2.40;;;;;;;;;;5050768;28;20037;-73
2023/05/24 13:10:14;;;;;;;3.47;2.58;;;;;;;;;;5049112;28;20017;-74
2023/05/24 13:12:42;;;;;;;5.35;2.60;;;;;;;;;;5047436;28;20028;-75
2023/05/24 13:15:09;;;;;;;3.63;2.10;;;;;;;;;;5063772;28;20522;-72
2023/05/24 13:17:35;;;;;;;5.05;2.50;;;;;;;;;;5046605;28;20558;-73
2023/05/24 13:20:05;;;;;;;4.47;2.67;;;;;;;;;;5049863;28;20307;-72
2023/05/24 13:22:36;;;;;;;4.20;2.50;;;;;;;;;;5048847;28;20021;-74
2023/05/24 13:25:06;;;;;;;8.02;2.28;;;;;;;;;;5041613;28;20116;-72
2023/05/24 13:27:32;;;;;;;7.22;2.80;;;;;;;;;;5043529;28;20029;-73
2023/05/24 13:29:58;;;;;;;5.03;3.08;;;;;;;;;;5043546;28;20496;-74
2023/05/24 13:32:24;;;;;;;4.30;2.95;;;;;;;;;;5048152;28;20127;-71
2023/05/24 13:34:51;;;;;;;5.07;2.97;;;;;;;;;;5048469;28;20094;-73
2023/05/24 13:37:18;;;;;;;5.22;2.47;;;;;;;;;;5048581;28;20025;-72
2023/05/24 13:39:43;;;;;;;5.85;3.85;;;;;;;;;;5048113;28;20033;-72
2023/05/24 13:42:09;;;;;;;4.13;2.63;;;;;;;;;;5051164;28;20048;-74
2023/05/24 13:44:36;;;;;;;5.82;2.90;;;;;;;;;;5041790;28;20100;-73
2023/05/24 13:47:02;;;;;;;6.47;2.75;;;;;;;;;;5050147;28;20073;-73
2023/05/24 13:49:28;;;;;;;8.40;2.92;;;;;;;;;;5046732;28;20435;-74
2023/05/24 13:51:54;;;;;;;4.35;2.40;;;;;;;;;;5040219;28;20045;-73
2023/05/24 13:54:21;;;;;;;5.38;2.38;;;;;;;;;;5031242;28;20264;-73
2023/05/24 13:56:48;;;;;;;6.20;3.10;;;;;;;;;;5031888;28;20048;-74
2023/05/24 13:59:14;;;;;;;3.65;2.38;;;;;;;;;;5030693;28;20556;-73
2023/05/24 14:01:41;;;;;;;4.65;2.60;;;;;;;;;;5031294;28;20042;-74
2023/05/24 14:04:07;;;;;;;3.33;2.22;;;;;;;;;;5031099;28;20040;-74
2023/05/24 14:06:33;;;;;;;5.75;2.72;;;;;;;;;;5031562;28;20056;-74
2023/05/24 14:09:00;;;;;;;5.90;2.72;;;;;;;;;;5042484;28;20062;-73
2023/05/24 14:11:30;;;;;;;4.57;2.78;;;;;;;;;;5051756;28;20025;-74
2023/05/24 14:13:55;;;;;;;5.35;2.50;;;;;;;;;;5049992;28;20033;-74
2023/05/24 14:16:23;;;;;;;4.78;2.70;;;;;;;;;;5050238;28;20025;-72
2023/05/24 14:18:50;;;;;;;3.42;2.50;;;;;;;;;;5051498;28;20029;-74
2023/05/24 14:21:18;;;;;;;3.20;2.45;;;;;;;;;;5051924;28;20021;-72
2023/05/24 14:23:44;;;;;;;5.45;2.67;;;;;;;;;;5050227;28;20455;-73
2023/05/24 14:26:09;;;;;;;6.97;2.80;;;;;;;;;;5051207;28;20048;-72
2023/05/24 14:28:35;;;;;;;3.25;2.55;;;;;;;;;;5043715;28;20495;-72
2023/05/24 14:31:01;;;;;;;4.28;2.30;;;;;;;;;;5031315;28;20357;-74
2023/05/24 14:33:27;;;;;;;3.78;2.45;;;;;;;;;;5036535;28;20048;-73
2023/05/24 14:35:52;;;;;;;4.18;2.63;;;;;;;;;;5049235;28;20035;-73
2023/05/24 14:38:19;;;;;;;6.53;2.90;;;;;;;;;;5043745;28;20426;-72
2023/05/24 14:40:46;;;;;;;4.35;2.53;;;;;;;;;;5039017;28;20029;-73
2023/05/24 14:43:12;;;;;;;4.78;2.50;;;;;;;;;;5048671;28;20029;-72